createdAt,value
2018-10-05T00:00:54.156Z,98835.31
2018-10-05T00:03:22.310Z,98840.02
2018-10-05T00:05:50.502Z,98841.42
2018-10-05T00:08:18.702Z,98849.31
2018-10-05T00:10:46.865Z,98842.35
2018-10-05T00:13:15.065Z,98839.16
2018-10-05T00:15:43.225Z,98837.46
2018-10-05T00:18:11.409Z,98834.80
2018-10-05T00:20:39.741Z,98841.84
2018-10-05T00:23:07.925Z,98831.64
2018-10-05T00:25:36.272Z,98824.38
2018-10-05T00:28:04.520Z,98824.31
2018-10-05T00:30:32.778Z,98814.77
2018-10-05T00:33:00.924Z,98808.33
2018-10-05T00:35:29.100Z,98806.98
2018-10-05T00:37:57.308Z,98813.79
2018-10-05T00:40:25.474Z,98813.58
2018-10-05T00:42:53.701Z,98814.98
2018-10-05T00:45:21.926Z,98809.36
2018-10-05T00:47:50.113Z,98808.27
2018-10-05T00:50:18.498Z,98804.77
2018-10-05T00:52:46.729Z,98805.35
2018-10-05T00:55:14.885Z,98812.39
2018-10-05T00:57:43.072Z,98812.93
2018-10-05T01:00:11.241Z,98804.53
2018-10-05T01:02:39.497Z,98799.40
2018-10-05T01:05:07.669Z,98807.03
2018-10-05T01:07:35.835Z,98809.20
2018-10-05T01:10:03.996Z,98812.95
2018-10-05T01:12:32.161Z,98809.70
2018-10-05T01:15:00.333Z,98818.88
2018-10-05T01:17:28.505Z,98813.25
2018-10-05T01:19:56.764Z,98810.06
2018-10-05T01:22:24.917Z,98810.34
2018-10-05T01:24:53.093Z,98808.20
2018-10-05T01:27:21.307Z,98809.03
2018-10-05T01:29:49.459Z,98813.38
2018-10-05T01:32:17.619Z,98804.77
2018-10-05T01:34:45.801Z,98803.71
2018-10-05T01:37:14.102Z,98800.39
2018-10-05T01:39:42.260Z,98799.39
2018-10-05T01:42:10.441Z,98790.50
2018-10-05T01:44:38.594Z,98796.16
2018-10-05T01:47:06.769Z,98781.35
2018-10-05T01:49:34.974Z,98785.91
2018-10-05T01:52:03.138Z,98781.34
2018-10-05T01:54:31.310Z,98779.21
2018-10-05T01:56:59.514Z,98777.62
2018-10-05T01:59:27.671Z,98778.47
2018-10-05T02:01:55.864Z,98769.33
2018-10-05T02:04:24.030Z,98774.99
2018-10-05T02:06:52.290Z,98775.52
2018-10-05T02:09:20.678Z,98780.89
2018-10-05T02:11:48.901Z,98774.45
2018-10-05T02:14:17.050Z,98775.25
2018-10-05T02:16:45.769Z,98771.45
2018-10-05T02:19:13.933Z,98768.23
2018-10-05T02:21:42.417Z,98762.30
2018-10-05T02:24:10.626Z,98760.98
2018-10-05T02:26:38.826Z,98763.69
2018-10-05T02:29:07.082Z,98761.79
2018-10-05T02:31:35.465Z,98762.62
2018-10-05T02:34:03.649Z,98756.14
2018-10-05T02:36:31.902Z,98757.49
2018-10-05T02:39:00.057Z,98746.47
2018-10-05T02:41:28.320Z,98743.78
2018-10-05T02:43:56.425Z,98746.75
2018-10-05T02:46:24.597Z,98748.12
2018-10-05T02:48:54.964Z,98740.87
2018-10-05T02:51:23.166Z,98741.42
2018-10-05T02:53:51.312Z,98744.85
2018-10-05T02:56:19.814Z,98737.06
2018-10-05T02:58:47.980Z,98740.03
2018-10-05T03:01:27.756Z,98743.03
2018-10-05T03:03:55.958Z,98730.67
2018-10-05T03:06:24.134Z,98731.48
2018-10-05T03:08:52.312Z,98736.89
2018-10-05T03:11:20.489Z,98733.13
2018-10-05T03:13:48.663Z,98735.83
2018-10-05T03:16:16.841Z,98733.38
2018-10-05T03:18:45.105Z,98733.92
2018-10-05T03:21:13.285Z,98730.44
2018-10-05T03:23:41.462Z,98732.09
2018-10-05T03:26:10.084Z,98738.55
2018-10-05T03:28:38.253Z,98743.94
2018-10-05T03:31:07.350Z,98739.65
2018-10-05T03:33:35.619Z,98739.09
2018-10-05T03:36:03.921Z,98745.02
2018-10-05T03:38:32.156Z,98745.01
2018-10-05T03:41:00.446Z,98739.89
2018-10-05T03:43:28.714Z,98738.03
2018-10-05T03:45:57.004Z,98733.19
2018-10-05T03:48:25.290Z,98724.03
2018-10-05T03:50:53.458Z,98725.12
2018-10-05T03:53:21.711Z,98724.83
2018-10-05T03:55:49.870Z,98714.36
2018-10-05T03:58:18.042Z,98718.66
2018-10-05T04:00:46.258Z,98717.29
2018-10-05T04:03:14.422Z,98717.84
2018-10-05T04:05:42.662Z,98715.97
2018-10-05T04:08:10.854Z,98722.16
2018-10-05T04:10:39.089Z,98719.92
2018-10-05T04:13:07.293Z,98718.58
2018-10-05T04:15:35.551Z,98725.84
2018-10-05T04:18:04.077Z,98726.10
2018-10-05T04:20:32.345Z,98720.22
2018-10-05T04:23:00.609Z,98721.63
2018-10-05T04:25:28.777Z,98728.34
2018-10-05T04:27:56.949Z,98726.73
2018-10-05T04:30:25.442Z,98716.75
2018-10-05T04:32:53.709Z,98723.74
2018-10-05T04:35:21.877Z,98723.73
2018-10-05T04:37:50.162Z,98730.20
2018-10-05T04:40:18.308Z,98724.84
2018-10-05T04:42:46.512Z,98729.44
2018-10-05T04:45:14.692Z,98725.13
2018-10-05T04:47:42.864Z,98711.16
2018-10-05T04:50:11.031Z,98718.97
2018-10-05T04:52:39.208Z,98717.34
2018-10-05T04:55:07.386Z,98719.22
2018-10-05T04:57:35.541Z,98721.37
2018-10-05T05:00:03.775Z,98723.52
2018-10-05T05:02:31.930Z,98727.82
2018-10-05T05:05:00.204Z,98714.11
2018-10-05T05:07:28.384Z,98725.15
2018-10-05T05:09:56.586Z,98734.02
2018-10-05T05:12:24.746Z,98725.95
2018-10-05T05:14:52.917Z,98724.08
2018-10-05T05:17:21.108Z,98723.53
2018-10-05T05:19:49.258Z,98730.23
2018-10-05T05:22:17.441Z,98728.87
2018-10-05T05:24:45.594Z,98739.37
2018-10-05T05:27:13.844Z,98736.69
2018-10-05T05:29:42.045Z,98738.84
2018-10-05T05:32:10.213Z,98733.19
2018-10-05T05:34:38.375Z,98742.32
2018-10-05T05:37:06.547Z,98739.36
2018-10-05T05:39:34.741Z,98737.77
2018-10-05T05:42:02.907Z,98744.72
2018-10-05T05:44:31.417Z,98740.39
2018-10-05T05:46:59.669Z,98739.84
2018-10-05T05:49:27.809Z,98749.75
2018-10-05T05:51:56.001Z,98750.50
2018-10-05T05:54:24.191Z,98753.95
2018-10-05T05:56:52.360Z,98750.12
2018-10-05T05:59:20.649Z,98756.81
2018-10-05T06:01:48.816Z,98755.48
2018-10-05T06:04:17.071Z,98747.88
2018-10-05T06:06:45.496Z,98749.44
2018-10-05T06:09:13.914Z,98753.41
2018-10-05T06:11:42.087Z,98760.34
2018-10-05T06:14:10.328Z,98758.87
2018-10-05T06:16:38.553Z,98753.36
2018-10-05T06:19:06.778Z,98749.41
2018-10-05T06:21:35.110Z,98743.58
2018-10-05T06:24:03.178Z,98751.16
2018-10-05T06:26:31.348Z,98748.38
2018-10-05T06:28:59.521Z,98743.33
2018-10-05T06:31:27.698Z,98746.42
2018-10-05T06:33:55.878Z,98746.34
2018-10-05T06:36:24.518Z,98741.06
2018-10-05T06:38:52.685Z,98739.20
2018-10-05T06:41:21.113Z,98738.16
2018-10-05T06:43:49.314Z,98745.95
2018-10-05T06:46:17.465Z,98743.87
2018-10-05T06:48:45.638Z,98749.66
2018-10-05T06:51:13.817Z,98756.15
2018-10-05T06:53:41.989Z,98747.62
2018-10-05T06:56:10.179Z,98753.08
2018-10-05T06:58:38.615Z,98752.23
2018-10-05T07:01:07.125Z,98739.21
2018-10-05T07:03:35.286Z,98748.88
2018-10-05T07:06:03.478Z,98751.98
2018-10-05T07:08:31.652Z,98746.22
2018-10-05T07:10:59.812Z,98749.84
2018-10-05T07:13:27.984Z,98748.81
2018-10-05T07:15:56.181Z,98743.86
2018-10-05T07:18:24.341Z,98736.98
2018-10-05T07:20:52.530Z,98744.02
2018-10-05T07:23:20.784Z,98742.64
2018-10-05T07:25:49.179Z,98733.05
2018-10-05T07:28:17.494Z,98734.69
2018-10-05T07:30:45.829Z,98728.59
2018-10-05T07:33:14.010Z,98731.44
2018-10-05T07:35:42.190Z,98735.30
2018-10-05T07:38:10.452Z,98728.70
2018-10-05T07:40:38.653Z,98724.03
2018-10-05T07:43:07.109Z,98730.45
2018-10-05T07:45:35.173Z,98734.05
2018-10-05T07:48:03.345Z,98736.61
2018-10-05T07:50:31.540Z,98740.88
2018-10-05T07:52:59.788Z,98738.77
2018-10-05T07:55:27.957Z,98739.31
2018-10-05T07:57:56.197Z,98736.61
2018-10-05T08:00:24.338Z,98735.67
2018-10-05T08:02:52.509Z,98728.89
2018-10-05T08:05:20.788Z,98729.17
2018-10-05T08:07:48.960Z,98722.45
2018-10-05T08:10:17.124Z,98726.16
2018-10-05T08:12:45.314Z,98719.39
2018-10-05T08:15:13.493Z,98715.13
2018-10-05T08:17:41.750Z,98710.73
2018-10-05T08:20:09.934Z,98712.46
2018-10-05T08:22:38.132Z,98710.99
2018-10-05T08:25:06.432Z,98713.09
2018-10-05T08:27:34.677Z,98718.38
2018-10-05T08:30:02.850Z,98710.52
2018-10-05T08:32:31.021Z,98711.16
2018-10-05T08:34:59.201Z,98713.12
2018-10-05T08:37:27.359Z,98714.95
2018-10-05T08:39:55.647Z,98711.45
2018-10-05T08:42:23.821Z,98703.78
2018-10-05T08:44:52.069Z,98703.03
2018-10-05T08:47:20.365Z,98699.29
2018-10-05T08:49:48.638Z,98697.39
2018-10-05T08:52:16.876Z,98694.03
2018-10-05T08:54:44.957Z,98693.12
2018-10-05T08:57:13.145Z,98688.02
2018-10-05T08:59:41.632Z,98679.36
2018-10-05T09:02:09.805Z,98670.56
2018-10-05T09:04:38.626Z,98670.77
2018-10-05T09:07:06.873Z,98663.47
2018-10-05T09:09:35.049Z,98667.42
2018-10-05T09:12:03.344Z,98666.58
2018-10-05T09:14:31.589Z,98664.72
2018-10-05T09:16:59.894Z,98664.94
2018-10-05T09:19:28.076Z,98671.45
2018-10-05T09:21:56.812Z,98664.66
2018-10-05T09:24:24.990Z,98655.86
2018-10-05T09:26:53.186Z,98660.20
2018-10-05T09:29:21.462Z,98647.21
2018-10-05T09:31:49.634Z,98649.17
2018-10-05T09:34:17.814Z,98639.33
2018-10-05T09:36:46.069Z,98641.59
2018-10-05T09:39:14.266Z,98655.03
2018-10-05T09:41:42.499Z,98645.42
2018-10-05T09:44:10.679Z,98641.97
2018-10-05T09:46:38.954Z,98636.19
2018-10-05T09:49:07.120Z,98627.28
2018-10-05T09:51:35.334Z,98627.52
2018-10-05T09:54:03.529Z,98624.17
2018-10-05T09:56:31.705Z,98629.66
2018-10-05T09:58:59.952Z,98614.19
2018-10-05T10:01:33.605Z,98616.44
2018-10-05T10:04:01.777Z,98602.91
2018-10-05T10:06:30.006Z,98607.03
2018-10-05T10:08:58.181Z,98606.36
2018-10-05T10:11:26.345Z,98599.50
2018-10-05T10:13:54.713Z,98596.81
2018-10-05T10:16:22.981Z,98590.75
2018-10-05T10:18:51.160Z,98586.70
2018-10-05T10:21:19.362Z,98571.55
2018-10-05T10:23:47.866Z,98570.68
2018-10-05T10:26:16.393Z,98570.69
2018-10-05T10:28:44.708Z,98556.52
2018-10-05T10:31:12.730Z,98552.83
2018-10-05T10:33:40.946Z,98544.69
2018-10-05T10:36:09.070Z,98538.34
2018-10-05T10:38:37.358Z,98534.60
2018-10-05T10:41:05.539Z,98522.40
2018-10-05T10:43:33.765Z,98525.42
2018-10-05T10:46:02.059Z,98523.20
2018-10-05T10:48:30.425Z,98515.57
2018-10-05T10:50:58.636Z,98518.56
2018-10-05T10:53:26.824Z,98512.08
2018-10-05T10:55:54.994Z,98509.43
2018-10-05T10:58:23.204Z,98510.06
2018-10-05T11:00:51.484Z,98507.80
2018-10-05T11:03:20.412Z,98497.70
2018-10-05T11:05:48.604Z,98494.31
2018-10-05T11:08:17.104Z,98486.05
2018-10-05T11:10:45.402Z,98494.02
2018-10-05T11:13:13.573Z,98487.70
2018-10-05T11:15:41.782Z,98486.29
2018-10-05T11:18:10.057Z,98479.21
2018-10-05T11:20:38.365Z,98478.02
2018-10-05T11:23:06.738Z,98467.50
2018-10-05T11:25:34.886Z,98468.41
2018-10-05T11:28:03.137Z,98465.67
2018-10-05T11:30:31.332Z,98460.42
2018-10-05T11:32:59.585Z,98449.29
2018-10-05T11:35:28.087Z,98452.22
2018-10-05T11:37:56.356Z,98439.86
2018-10-05T11:40:24.528Z,98437.28
2018-10-05T11:42:52.712Z,98427.88
2018-10-05T11:45:20.898Z,98429.79
2018-10-05T11:47:49.161Z,98425.44
2018-10-05T11:50:17.417Z,98421.38
2018-10-05T11:52:45.598Z,98422.66
2018-10-05T11:55:13.791Z,98414.66
2018-10-05T11:57:42.054Z,98416.32
2018-10-05T12:00:10.298Z,98403.33
2018-10-05T12:02:38.619Z,98405.09
2018-10-05T12:05:06.951Z,98395.09
2018-10-05T12:07:35.159Z,98394.95
2018-10-05T12:10:03.316Z,98387.39
2018-10-05T12:12:31.490Z,98387.64
2018-10-05T12:15:00.548Z,98386.20
2018-10-05T12:17:28.748Z,98375.78
2018-10-05T12:19:56.986Z,98372.95
2018-10-05T12:22:25.437Z,98367.46
2018-10-05T12:24:53.730Z,98365.06
2018-10-05T12:27:21.897Z,98373.31
2018-10-05T12:29:50.171Z,98353.94
2018-10-05T12:32:18.321Z,98353.83
2018-10-05T12:34:46.505Z,98345.92
2018-10-05T12:37:14.881Z,98349.39
2018-10-05T12:39:43.072Z,98333.75
2018-10-05T12:42:11.396Z,98332.19
2018-10-05T12:44:39.490Z,98321.12
2018-10-05T12:47:07.788Z,98323.17
2018-10-05T12:49:35.957Z,98332.23
2018-10-05T12:52:04.714Z,98327.01
2018-10-05T12:54:32.930Z,98322.12
2018-10-05T12:57:01.298Z,98316.93
2018-10-05T12:59:29.630Z,98316.13
2018-10-05T13:01:57.841Z,98307.70
2018-10-05T13:04:26.048Z,98305.97
2018-10-05T13:06:54.331Z,98304.70
2018-10-05T13:09:22.686Z,98300.53
2018-10-05T13:11:51.795Z,98293.78
2018-10-05T13:14:21.132Z,98285.37
2018-10-05T13:16:49.355Z,98290.03
2018-10-05T13:19:17.522Z,98281.78
2018-10-05T13:21:45.759Z,98277.44
2018-10-05T13:24:14.001Z,98283.25
2018-10-05T13:26:42.253Z,98277.33
2018-10-05T13:29:10.417Z,98277.68
2018-10-05T13:31:38.620Z,98279.89
2018-10-05T13:34:06.994Z,98276.20
2018-10-05T13:36:35.171Z,98280.04
2018-10-05T13:39:04.086Z,98276.97
2018-10-05T13:41:32.258Z,98276.55
2018-10-05T13:44:00.499Z,98275.80
2018-10-05T13:46:28.769Z,98275.58
2018-10-05T13:48:58.493Z,98264.58
2018-10-05T13:51:27.086Z,98260.55
2018-10-05T13:53:55.266Z,98258.27
2018-10-05T13:56:23.440Z,98261.60
2018-10-05T13:58:51.706Z,98256.21
2018-10-05T14:01:19.954Z,98248.30
2018-10-05T14:03:48.162Z,98250.55
2018-10-05T14:06:16.466Z,98246.23
2018-10-05T14:08:44.629Z,98243.93
2018-10-05T14:11:13.242Z,98241.48
2018-10-05T14:13:41.410Z,98236.44
2018-10-05T14:16:09.578Z,98232.84
2018-10-05T14:18:37.771Z,98233.97
2018-10-05T14:21:06.084Z,98233.20
2018-10-05T14:23:34.557Z,98225.36
2018-10-05T14:26:02.825Z,98225.00
2018-10-05T14:28:31.025Z,98210.36
2018-10-05T14:30:59.917Z,98206.29
2018-10-05T14:33:28.165Z,98201.34
2018-10-05T14:35:56.521Z,98199.81
2018-10-05T14:38:24.683Z,98191.80
2018-10-05T14:40:52.956Z,98196.40
2018-10-05T14:43:21.186Z,98195.92
2018-10-05T14:45:49.657Z,98202.70
2018-10-05T14:48:17.899Z,98197.34
2018-10-05T14:50:46.839Z,98194.44
2018-10-05T14:53:15.010Z,98188.86
2018-10-05T14:55:43.193Z,98188.25
2018-10-05T14:58:11.457Z,98190.52
2018-10-05T15:00:39.775Z,98184.73
2018-10-05T15:03:07.987Z,98188.75
2018-10-05T15:05:36.184Z,98177.16
2018-10-05T15:08:04.448Z,98182.23
2018-10-05T15:10:32.655Z,98175.52
2018-10-05T15:13:00.899Z,98168.49
2018-10-05T15:15:29.074Z,98162.50
2018-10-05T15:17:57.301Z,98160.25
2018-10-05T15:20:25.474Z,98157.38
2018-10-05T15:22:53.694Z,98156.80
2018-10-05T15:25:21.885Z,98150.30
2018-10-05T15:27:50.305Z,98144.25
2018-10-05T15:30:18.517Z,98141.71
2018-10-05T15:32:46.708Z,98141.96
2018-10-05T15:35:15.185Z,98135.84
2018-10-05T15:37:43.353Z,98140.85
2018-10-05T15:40:11.533Z,98139.22
2018-10-05T15:42:39.713Z,98131.78
2018-10-05T15:45:07.889Z,98138.83
2018-10-05T15:47:36.162Z,98127.59
2018-10-05T15:50:04.476Z,98132.87
2018-10-05T15:52:32.641Z,98122.03
2018-10-05T15:55:01.183Z,98125.46
2018-10-05T15:57:29.391Z,98129.80
2018-10-05T15:59:57.547Z,98125.99
2018-10-05T16:02:25.708Z,98125.72
2018-10-05T16:04:54.194Z,98130.27
2018-10-05T16:07:22.394Z,98129.56
2018-10-05T16:09:50.724Z,98123.30
2018-10-05T16:12:18.920Z,98123.12
2018-10-05T16:14:47.128Z,98130.06
2018-10-05T16:17:15.268Z,98127.34
2018-10-05T16:19:43.437Z,98131.58
2018-10-05T16:22:11.600Z,98122.73
2018-10-05T16:24:43.162Z,98131.73
2018-10-05T16:27:12.046Z,98128.78
2018-10-05T16:29:40.252Z,98127.56
2018-10-05T16:32:09.372Z,98128.42
2018-10-05T16:34:38.602Z,98131.08
2018-10-05T16:37:08.265Z,98130.34
2018-10-05T16:39:37.436Z,98137.47
2018-10-05T16:42:06.516Z,98139.81
2018-10-05T16:44:35.821Z,98139.05
2018-10-05T16:47:05.045Z,98131.77
2018-10-05T16:49:34.161Z,98130.34
2018-10-05T16:52:03.499Z,98129.73
2018-10-05T16:54:32.745Z,98128.59
2018-10-05T16:57:02.029Z,98130.97
2018-10-05T16:59:31.093Z,98131.52
2018-10-05T17:02:00.929Z,98134.84
2018-10-05T17:04:30.219Z,98127.93
2018-10-05T17:06:59.405Z,98132.02
2018-10-05T17:09:28.609Z,98126.89
2018-10-05T17:11:57.764Z,98134.13
2018-10-05T17:14:27.837Z,98134.41
2018-10-05T17:16:57.480Z,98138.56
2018-10-05T17:19:26.626Z,98135.06
2018-10-05T17:21:56.219Z,98135.06
2018-10-05T17:24:25.465Z,98131.26
2018-10-05T17:26:54.756Z,98126.02
2018-10-05T17:29:24.158Z,98124.73
2018-10-05T17:31:53.276Z,98125.31
2018-10-05T17:34:22.503Z,98119.50
2018-10-05T17:36:51.718Z,98116.53
2018-10-05T17:39:20.943Z,98128.73
2018-10-05T17:41:50.148Z,98123.67
2018-10-05T17:44:19.331Z,98123.07
2018-10-05T17:46:48.666Z,98127.62
2018-10-05T17:49:18.227Z,98127.91
2018-10-05T17:51:47.517Z,98130.36
2018-10-05T17:54:16.782Z,98134.61
2018-10-05T17:56:46.041Z,98125.00
2018-10-05T17:59:15.859Z,98126.06
2018-10-05T18:01:45.201Z,98119.43
2018-10-05T18:04:14.438Z,98118.23
2018-10-05T18:06:43.569Z,98115.91
2018-10-05T18:09:11.809Z,98112.23
2018-10-05T18:11:40.029Z,98116.61
2018-10-05T18:14:08.272Z,98113.46
2018-10-05T18:16:37.034Z,98114.23
2018-10-05T18:19:05.274Z,98114.88
2018-10-05T18:21:33.556Z,98114.92
2018-10-05T18:24:01.751Z,98117.09
2018-10-05T18:26:30.686Z,98115.60
2018-10-05T18:28:59.040Z,98115.20
2018-10-05T18:31:27.494Z,98110.23
2018-10-05T18:33:55.930Z,98114.59
2018-10-05T18:36:24.274Z,98108.19
2018-10-05T18:38:52.674Z,98111.17
2018-10-05T18:41:20.997Z,98108.80
2018-10-05T18:43:49.233Z,98108.38
2018-10-05T18:46:17.493Z,98104.66
2018-10-05T18:48:45.874Z,98102.66
2018-10-05T18:51:14.318Z,98110.87
2018-10-05T18:53:43.333Z,98106.67
2018-10-05T18:56:23.561Z,98101.14
2018-10-05T18:58:52.783Z,98106.72
2018-10-05T19:01:22.061Z,98097.28
2018-10-05T19:03:51.653Z,98101.72
2018-10-05T19:06:20.935Z,98105.69
2018-10-05T19:08:50.075Z,98109.69
2018-10-05T19:11:19.480Z,98110.38
2018-10-05T19:13:47.754Z,98110.50
2018-10-05T19:16:15.981Z,98105.14
2018-10-05T19:18:44.998Z,98098.33
2018-10-05T19:21:13.363Z,98099.25
2018-10-05T19:23:43.128Z,98096.64
2018-10-05T19:26:12.101Z,98095.17
2018-10-05T19:28:40.407Z,98099.80
2018-10-05T19:31:09.676Z,98093.22
2018-10-05T19:33:39.034Z,98094.13
2018-10-05T19:36:08.556Z,98100.94
2018-10-05T19:38:37.985Z,98101.50
2018-10-05T19:41:07.462Z,98099.64
2018-10-05T19:43:36.795Z,98099.53
2018-10-05T19:46:06.298Z,98099.07
2018-10-05T19:48:35.653Z,98100.98
2018-10-05T19:51:04.731Z,98097.23
2018-10-05T19:53:34.029Z,98099.94
2018-10-05T19:56:03.493Z,98107.84
2018-10-05T19:58:32.809Z,98103.63
2018-10-05T20:01:02.581Z,98100.54
2018-10-05T20:03:32.499Z,98104.95
2018-10-05T20:06:02.067Z,98094.48
2018-10-05T20:08:31.415Z,98100.36
2018-10-05T20:11:00.611Z,98095.83
2018-10-05T20:13:29.679Z,98092.72
2018-10-05T20:15:58.619Z,98094.75
2018-10-05T20:18:27.991Z,98092.82
2018-10-05T20:20:57.020Z,98099.37
2018-10-05T20:23:26.313Z,98092.88
2018-10-05T20:25:55.501Z,98094.57
2018-10-05T20:28:24.775Z,98097.06
2018-10-05T20:30:54.057Z,98095.67
2018-10-05T20:33:23.314Z,98085.23
2018-10-05T20:35:52.857Z,98091.30
2018-10-05T20:38:22.060Z,98093.09
2018-10-05T20:40:51.324Z,98090.72
2018-10-05T20:43:20.294Z,98095.92
2018-10-05T20:45:49.550Z,98090.48
2018-10-05T20:48:17.731Z,98093.50
2018-10-05T20:50:45.996Z,98102.22
2018-10-05T20:53:14.202Z,98092.70
2018-10-05T20:55:42.606Z,98087.34
2018-10-05T20:58:10.814Z,98092.44
2018-10-05T21:00:39.018Z,98086.30
2018-10-05T21:03:07.225Z,98093.20
2018-10-05T21:05:35.405Z,98096.81
2018-10-05T21:08:03.583Z,98096.08
2018-10-05T21:10:32.597Z,98097.54
2018-10-05T21:13:00.873Z,98093.56
2018-10-05T21:15:29.349Z,98096.05
2018-10-05T21:17:57.554Z,98095.67
2018-10-05T21:20:25.814Z,98092.12
2018-10-05T21:22:54.001Z,98082.58
2018-10-05T21:25:22.269Z,98080.94
2018-10-05T21:27:50.709Z,98088.92
2018-10-05T21:30:18.901Z,98084.66
2018-10-05T21:32:47.443Z,98079.84
2018-10-05T21:35:15.913Z,98076.98
2018-10-05T21:37:44.141Z,98087.29
2018-10-05T21:40:12.423Z,98083.16
2018-10-05T21:42:40.753Z,98082.46
2018-10-05T21:45:08.923Z,98084.00
2018-10-05T21:47:37.137Z,98087.40
2018-10-05T21:50:05.400Z,98090.85
2018-10-05T21:52:33.612Z,98088.98
2018-10-05T21:55:01.785Z,98090.67
2018-10-05T21:57:29.994Z,98085.51
2018-10-05T21:59:58.166Z,98090.61
2018-10-05T22:02:30.560Z,98085.44
2018-10-05T22:04:58.758Z,98083.67
2018-10-05T22:07:26.928Z,98076.59
2018-10-05T22:09:55.212Z,98080.19
2018-10-05T22:12:23.382Z,98077.29
2018-10-05T22:14:51.576Z,98071.87
2018-10-05T22:17:19.776Z,98074.19
2018-10-05T22:19:47.972Z,98075.31
2018-10-05T22:22:16.161Z,98072.94
2018-10-05T22:24:44.467Z,98077.48
2018-10-05T22:27:12.924Z,98081.00
2018-10-05T22:29:41.094Z,98079.33
2018-10-05T22:32:09.297Z,98077.31
2018-10-05T22:34:37.549Z,98080.90
2018-10-05T22:37:06.057Z,98072.45
2018-10-05T22:39:34.276Z,98070.78
2018-10-05T22:42:02.817Z,98065.69
2018-10-05T22:44:31.070Z,98067.52
2018-10-05T22:46:59.412Z,98065.05
2018-10-05T22:49:27.622Z,98076.44
2018-10-05T22:51:55.788Z,98067.73
2018-10-05T22:54:24.348Z,98077.28
2018-10-05T22:56:52.710Z,98075.05
2018-10-05T22:59:20.934Z,98078.23
2018-10-05T23:01:49.114Z,98082.20
2018-10-05T23:04:17.290Z,98081.32
2018-10-05T23:06:45.561Z,98076.75
2018-10-05T23:09:13.747Z,98075.38
2018-10-05T23:11:42.002Z,98072.11
2018-10-05T23:14:10.165Z,98069.41
2018-10-05T23:16:38.370Z,98069.72
2018-10-05T23:19:06.593Z,98068.20
2018-10-05T23:21:34.797Z,98064.22
2018-10-05T23:24:02.973Z,98064.13
2018-10-05T23:26:31.153Z,98064.13
2018-10-05T23:28:59.330Z,98053.93
2018-10-05T23:31:27.533Z,98060.14
2018-10-05T23:33:55.701Z,98049.39
2018-10-05T23:36:23.874Z,98060.84
2018-10-05T23:38:52.045Z,98051.61
2018-10-05T23:41:20.351Z,98058.97
2018-10-05T23:43:48.524Z,98057.75
2018-10-05T23:46:16.703Z,98055.52
2018-10-05T23:48:44.845Z,98053.77
2018-10-05T23:51:13.094Z,98051.46
2018-10-05T23:53:41.382Z,98044.45
2018-10-05T23:56:09.606Z,98047.06
2018-10-05T23:58:37.770Z,98048.22
